Flight Track Log - Related Links

Times and Time Zones

All times are in EDT time to prevent confusion due to time zone crossing. See the SWA2624 flight status page for this flight to view local times or setup timezone preferences in your user account.

Time Position Orientation Groundspeed Altitude Reporting Facility
EDT Latitude Longitude Course Direction KTS MPH feet Rate Location/Type
Fri 06:49:02 PM 39.1833 -76.7667 218° Southwest 214 246 2,400  Level Potomac TRACON
Fri 06:50:02 PM 39.2000 -76.8333 288° West 252 290 5,600 3,789 Climbing Potomac TRACON
Fri 06:50:56 PM 39.2167 -76.9333 282° West 265 305 9,600 2,985 Climbing Potomac TRACON
Fri 06:53:19 PM 39.1950 -77.1689 263° West 322 371 15,400 2,559 Climbing Washington Center
Fri 06:54:00 PM 39.0159 -77.3008 218° Southwest  Level FlightAware Approximate
Fri 06:54:20 PM 39.1083 -77.2500 216° Southwest 330 380 18,300  Level Washington Center
Fri 06:55:17 PM 39.0669 -77.3722 246° West 347 399 20,900 2,667 Climbing Washington Center
Fri 06:56:17 PM 39.0381 -77.4997 254° West 369 425 23,500 2,430 Climbing Washington Center
Fri 06:57:18 PM 39.0044 -77.6350 252° West 387 445 25,800 1,721 Climbing Washington Center
Fri 06:58:19 PM 38.9664 -77.7808 251° West 400 460 27,000 1,537 Climbing Washington Center
Fri 06:59:19 PM 38.9306 -77.9186 252° West 400 460 28,900 2,168 Climbing Washington Center
Fri 07:00:18 PM 38.8967 -78.0456 251° West 400 460 31,300 2,118 Climbing Washington Center
Fri 07:01:18 PM 38.8628 -78.1722 251° West 387 445 33,100 1,339 Climbing Washington Center
Fri 07:02:19 PM 38.8539 -78.2972 265° West 375 432 34,000 958 Climbing Washington Center
Fri 07:03:17 PM 38.8511 -78.4197 268° West 359 413 35,000 1,462 Climbing Washington Center
Fri 07:04:18 PM 38.8503 -78.5397 270° West 347 399 36,900 1,328 Climbing Washington Center
Fri 07:05:19 PM 38.8494 -78.6569 270° West 341 392 37,700 555 Climbing Washington Center
Fri 07:06:17 PM 38.8483 -78.7769 269° West 341 392 38,000 151 Climbing Washington Center
Fri 07:07:18 PM 38.8450 -78.9019 268° West 346 398 38,000  Level Washington Center
Fri 07:08:18 PM 38.8456 -79.0275 270° West 352 405 38,000  Level Washington Center
Fri 07:09:19 PM 38.8439 -79.1525 269° West 352 405 38,000  Level Washington Center
Fri 07:10:17 PM 38.8278 -79.2769 261° West 352 405 38,000  Level Washington Center
Fri 07:11:18 PM 38.8072 -79.3986 258° West 352 405 38,000  Level Washington Center
Fri 07:12:18 PM 38.7844 -79.5225 257° West 352 405 38,000  Level Washington Center
Fri 07:13:17 PM 38.7636 -79.6492 258° West 359 413 38,000  Level Washington Center
Fri 07:14:18 PM 38.7408 -79.7706 257° West 359 413 38,000  Level Washington Center
Fri 07:15:18 PM 38.7197 -79.8892 257° West 353 406 38,000  Level Washington Center
Fri 07:16:19 PM 38.6975 -79.9914 254° West 348 400 38,000  Level Washington Center
Fri 07:18:01 PM 38.6561 -80.2019 256° West 341 392 38,000  Level Indianapolis Center
Fri 07:19:02 PM 38.6339 -80.3203 257° West 342 394 38,000  Level Indianapolis Center
Fri 07:20:04 PM 38.6106 -80.4392 256° West 344 396 38,000  Level Indianapolis Center
Fri 07:21:06 PM 38.5897 -80.5575 257° West 342 394 38,000  Level Indianapolis Center
Fri 07:22:08 PM 38.5667 -80.6775 256° West 345 397 38,000  Level Indianapolis Center
Fri 07:23:09 PM 38.5428 -80.7956 256° West 343 395 38,000  Level Indianapolis Center
Fri 07:24:11 PM 38.5194 -80.9153 256° West 345 397 38,000  Level Indianapolis Center
Fri 07:25:13 PM 38.4964 -81.0358 256° West 348 400 38,000  Level Indianapolis Center
Fri 07:26:14 PM 38.4733 -81.1542 256° West 343 395 38,000  Level Indianapolis Center
Fri 07:27:16 PM 38.4442 -81.2961 255° West 342 394 38,000  Level Indianapolis Center
Fri 07:28:18 PM 38.4208 -81.4144 256° West 340 391 38,000  Level Indianapolis Center
Fri 07:29:19 PM 38.3972 -81.5336 256° West 342 394 38,000  Level Indianapolis Center
Fri 07:30:21 PM 38.3742 -81.6511 256° West 340 391 38,000  Level Indianapolis Center
Fri 07:31:23 PM 38.3506 -81.7683 256° West 340 391 38,000  Level Indianapolis Center
Fri 07:32:24 PM 38.3450 -81.8881 267° West 337 388 38,000  Level Indianapolis Center
Fri 07:33:26 PM 38.3400 -82.0069 267° West 336 387 38,000  Level Indianapolis Center
Fri 07:34:28 PM 38.3350 -82.1256 267° West 334 384 38,000  Level Indianapolis Center
Fri 07:35:29 PM 38.3292 -82.2458 266° West 338 389 38,000  Level Indianapolis Center
Fri 07:36:31 PM 38.3222 -82.3636 266° West 335 386 38,000  Level Indianapolis Center
Fri 07:37:32 PM 38.3144 -82.5072 266° West 337 388 38,000  Level Indianapolis Center
Fri 07:38:34 PM 38.3083 -82.6136 266° West 337 388 38,000  Level Indianapolis Center
Fri 07:39:36 PM 38.3003 -82.7525 266° West 337 388 38,000  Level Indianapolis Center
Fri 07:40:37 PM 38.2936 -82.8711 266° West 337 388 38,000  Level Indianapolis Center
Fri 07:41:39 PM 38.2858 -82.9900 265° West 338 389 38,000  Level Indianapolis Center
Fri 07:42:40 PM 38.2792 -83.1086 266° West 337 388 38,000  Level Indianapolis Center
Fri 07:43:42 PM 38.2722 -83.2264 266° West 335 386 38,000  Level Indianapolis Center
Fri 07:44:44 PM 38.2650 -83.3453 266° West 336 387 38,000  Level Indianapolis Center
Fri 07:45:45 PM 38.2564 -83.4636 265° West 335 386 38,000  Level Indianapolis Center
Fri 07:46:47 PM 38.2481 -83.6025 266° West 337 388 38,000  Level Indianapolis Center
Fri 07:47:48 PM 38.2397 -83.7233 265° West 342 394 38,000  Level Indianapolis Center
Fri 07:48:50 PM 38.2317 -83.8433 265° West 342 394 38,000  Level Indianapolis Center
Fri 07:49:52 PM 38.2233 -83.9642 265° West 342 394 38,000  Level Indianapolis Center
Fri 07:50:53 PM 38.2153 -84.0847 265° West 344 396 38,000  Level Indianapolis Center
Fri 07:51:55 PM 38.2061 -84.2061 265° West 347 399 38,000  Level Indianapolis Center
Fri 07:52:56 PM 38.1978 -84.3289 265° West 348 400 38,000  Level Indianapolis Center
Fri 07:53:58 PM 38.1875 -84.4683 265° West 342 394 38,000  Level Indianapolis Center
Fri 07:55:00 PM 38.1778 -84.5903 264° West 346 398 38,000  Level Indianapolis Center
Fri 07:56:01 PM 38.1694 -84.7111 265° West 344 396 38,000  Level Indianapolis Center
Fri 07:57:03 PM 38.1600 -84.8339 264° West 347 399 38,000  Level Indianapolis Center
Fri 07:58:04 PM 38.1528 -84.9536 266° West 343 395 38,000  Level Indianapolis Center
Fri 07:59:06 PM 38.1431 -85.0767 264° West 348 400 38,000  Level Indianapolis Center
Fri 08:00:07 PM 38.1328 -85.2083 264° West 356 410 38,000  Level Indianapolis Center
Fri 08:01:09 PM 38.1228 -85.3344 264° West 358 412 38,000  Level Indianapolis Center
Fri 08:02:11 PM 38.1128 -85.4608 264° West 361 415 38,000  Level Indianapolis Center
Fri 08:03:12 PM 38.1022 -85.5889 264° West 362 417 38,000  Level Indianapolis Center
Fri 08:04:14 PM 38.0936 -85.7150 265° West 359 413 38,000  Level Indianapolis Center
Fri 08:05:15 PM 38.0822 -85.8678 265° West 361 415 38,000  Level Indianapolis Center
Fri 08:06:17 PM 38.0736 -85.9958 265° West 363 418 38,000  Level Indianapolis Center
Fri 08:07:18 PM 38.0644 -86.1244 265° West 363 418 38,000  Level Indianapolis Center
Fri 08:08:20 PM 38.0531 -86.2547 264° West 368 423 38,000  Level Indianapolis Center
Fri 08:09:21 PM 38.0431 -86.3836 264° West 366 421 38,000  Level Indianapolis Center
Fri 08:10:23 PM 38.0328 -86.5122 264° West 366 421 38,000  Level Indianapolis Center
Fri 08:11:24 PM 38.0222 -86.6411 264° West 364 419 38,000  Level Indianapolis Center
Fri 08:12:26 PM 38.0122 -86.7689 264° West 363 418 38,000  Level Indianapolis Center
Fri 08:13:27 PM 38.0022 -86.8997 264° West 366 421 38,000  Level Indianapolis Center
Fri 08:14:29 PM 37.9914 -87.0300 264° West 368 423 38,000  Level Indianapolis Center
Fri 08:15:30 PM 37.9797 -87.1603 264° West 367 422 38,000  Level Indianapolis Center
Fri 08:16:32 PM 37.9686 -87.2903 264° West 367 422 38,000  Level Indianapolis Center
Fri 08:17:33 PM 37.9581 -87.4192 264° West 366 421 38,000  Level Indianapolis Center
Fri 08:18:35 PM 37.9472 -87.5469 264° West 363 418 38,000  Level Indianapolis Center
Fri 08:19:36 PM 37.9328 -87.7017 263° West 366 421 38,000  Level Indianapolis Center
Fri 08:20:38 PM 37.9219 -87.8289 264° West 363 418 38,000  Level Indianapolis Center
Fri 08:21:07 PM 37.9175 -87.8794 264° West 363 418 38,000  Level Kansas City Center
Fri 08:22:07 PM 37.9056 -88.0056 263° West 360 414 38,000  Level Kansas City Center
Fri 08:23:08 PM 37.8939 -88.1319 263° West 359 413 38,000  Level Kansas City Center
Fri 08:24:09 PM 37.8822 -88.2586 263° West 360 414 38,000  Level Kansas City Center
Fri 08:24:44 PM 37.8733 -88.3336 261° West 361 415 38,000  Level Indianapolis Center
Fri 08:25:13 PM 37.8686 -88.3850 263° West 361 415 38,000  Level Kansas City Center
Fri 08:26:15 PM 37.8569 -88.5119 263° West 362 417 38,000  Level Kansas City Center
Fri 08:27:16 PM 37.8444 -88.6386 263° West 362 417 38,000  Level Kansas City Center
Fri 08:28:17 PM 37.8317 -88.7678 263° West 358 412 38,000 50 Level Kansas City Center
Fri 08:29:17 PM 37.8181 -88.8933 262° West 359 413 38,100 694 Climbing Kansas City Center
Fri 08:30:18 PM 37.8017 -89.0447 262° West 361 415 39,400 905 Climbing Kansas City Center
Fri 08:31:23 PM 37.7892 -89.1697 263° West 361 415 40,000 288 Climbing Kansas City Center
Fri 08:32:23 PM 37.7758 -89.2931 262° West 359 413 40,000  Level Kansas City Center
Fri 08:33:24 PM 37.7631 -89.4183 263° West 359 413 40,000  Level Kansas City Center
Fri 08:34:25 PM 37.7481 -89.5461 262° West 362 417 40,000  Level Kansas City Center
Fri 08:35:26 PM 37.7353 -89.6714 263° West 362 417 40,000  Level Kansas City Center
Fri 08:36:28 PM 37.7219 -89.7969 262° West 361 415 40,000  Level Kansas City Center
Fri 08:37:32 PM 37.7078 -89.9242 262° West 363 418 40,000  Level Kansas City Center
Fri 08:38:33 PM 37.6936 -90.0511 262° West 365 420 40,000  Level Kansas City Center
Fri 08:39:34 PM 37.6758 -90.2044 262° West 366 421 40,000  Level Kansas City Center
Fri 08:40:34 PM 37.6639 -90.3319 263° West 366 421 40,000  Level Kansas City Center
Fri 08:41:38 PM 37.6517 -90.4578 263° West 363 418 40,000  Level Kansas City Center
Fri 08:42:39 PM 37.6400 -90.5872 264° West 367 422 40,000  Level Kansas City Center
Fri 08:43:40 PM 37.6278 -90.7183 263° West 373 429 40,000  Level Kansas City Center
Fri 08:44:41 PM 37.6147 -90.8614 263° West 372 428 40,000  Level Kansas City Center
Fri 08:45:42 PM 37.6008 -90.9942 263° West 377 434 40,000  Level Kansas City Center
Fri 08:46:46 PM 37.5883 -91.1258 263° West 377 434 40,000  Level Kansas City Center
Fri 08:47:47 PM 37.5758 -91.2611 263° West 382 440 40,000  Level Kansas City Center
Fri 08:48:48 PM 37.5617 -91.3947 262° West 384 442 40,000  Level Kansas City Center
Fri 08:49:48 PM 37.5497 -91.5281 264° West 382 440 40,000  Level Kansas City Center
Fri 08:50:52 PM 37.5358 -91.6625 263° West 383 441 40,000  Level Kansas City Center
Fri 08:51:52 PM 37.5219 -91.7967 263° West 383 441 40,000  Level Kansas City Center
Fri 08:52:54 PM 37.5083 -91.9300 263° West 382 440 40,000  Level Kansas City Center
Fri 08:53:55 PM 37.4944 -92.0619 262° West 378 435 40,000  Level Kansas City Center
Fri 08:54:56 PM 37.4806 -92.1958 263° West 380 437 40,000  Level Kansas City Center
Fri 08:55:59 PM 37.4647 -92.3569 263° West 382 440 40,000  Level Kansas City Center
Fri 08:57:01 PM 37.4506 -92.4908 262° West 381 438 40,000  Level Kansas City Center
Fri 08:58:03 PM 37.4356 -92.6258 262° West 384 442 40,000  Level Kansas City Center
Fri 08:59:04 PM 37.4203 -92.7592 262° West 384 442 40,000  Level Kansas City Center
Fri 09:00:05 PM 37.4058 -92.8933 262° West 384 442 40,000  Level Kansas City Center
Fri 09:01:05 PM 37.3903 -93.0269 262° West 385 443 40,000  Level Kansas City Center
Fri 09:02:08 PM 37.3756 -93.1631 262° West 388 447 40,000  Level Kansas City Center
Fri 09:03:09 PM 37.3594 -93.2964 261° West 387 445 40,000  Level Kansas City Center
Fri 09:04:10 PM 37.3417 -93.4317 261° West 389 448 40,000  Level Kansas City Center
Fri 09:05:13 PM 37.3172 -93.5653 257° West 391 450 40,000  Level Kansas City Center
Fri 09:06:15 PM 37.2917 -93.6978 256° West 391 450 40,000  Level Kansas City Center
Fri 09:07:16 PM 37.2594 -93.8572 256° West 391 450 40,000  Level Kansas City Center
Fri 09:08:16 PM 37.2339 -93.9903 256° West 391 450 40,000  Level Kansas City Center
Fri 09:09:17 PM 37.2092 -94.1219 257° West 393 452 40,000  Level Kansas City Center
Fri 09:10:20 PM 37.1847 -94.2561 257° West 393 452 40,000  Level Kansas City Center
Fri 09:11:21 PM 37.1589 -94.3892 256° West 392 451 40,000  Level Kansas City Center
Fri 09:12:24 PM 37.1339 -94.5219 257° West 392 451 40,000  Level Kansas City Center
Fri 09:13:25 PM 37.1206 -94.6550 263° West 386 444 40,000  Level Kansas City Center
Fri 09:14:26 PM 37.1303 -94.7914 275° West 389 448 40,000  Level Kansas City Center
Fri 09:15:28 PM 37.1403 -94.9267 275° West 391 450 40,000  Level Kansas City Center
Fri 09:16:29 PM 37.1514 -95.0881 275° West 390 449 40,000  Level Kansas City Center
Fri 09:17:29 PM 37.1519 -95.2214 270° West 387 445 40,000  Level Kansas City Center
Fri 09:18:31 PM 37.1075 -95.3414 245° Southwest 382 440 40,000  Level Kansas City Center
Fri 09:19:32 PM 37.0600 -95.4636 244° Southwest 389 448 40,000  Level Kansas City Center
Fri 09:20:34 PM 37.0114 -95.5825 243° Southwest 387 445 40,000  Level Kansas City Center
Fri 09:21:34 PM 36.9639 -95.7014 243° Southwest 385 443 40,000  Level Kansas City Center
Fri 09:22:38 PM 36.9153 -95.8225 243° Southwest 389 448 40,000  Level Kansas City Center
Fri 09:23:36 PM 36.8653 -95.9431 243° Southwest 390 449 40,000  Level Kansas City Center
Fri 09:24:40 PM 36.8292 -96.1000 254° West 401 461 40,000  Level Kansas City Center
Fri 09:25:41 PM 36.8189 -96.2392 265° West 404 465 40,000  Level Kansas City Center
Fri 09:26:41 PM 36.8083 -96.3794 265° West 406 467 40,000  Level Kansas City Center
Fri 09:27:45 PM 36.7978 -96.5197 265° West 407 468 40,000  Level Kansas City Center
Fri 09:28:44 PM 36.7872 -96.6600 265° West 407 468 40,000  Level Kansas City Center
Fri 09:29:47 PM 36.7761 -96.8017 264° West 409 471 40,000  Level Kansas City Center
Fri 09:30:48 PM 36.7642 -96.9425 264° West 409 471 40,000  Level Kansas City Center
Fri 09:31:49 PM 36.7539 -97.0856 265° West 411 473 40,000  Level Kansas City Center
Fri 09:32:51 PM 36.7394 -97.2261 263° West 411 473 40,000  Level Kansas City Center
Fri 09:33:51 PM 36.7194 -97.3639 260° West 410 472 40,000  Level Kansas City Center
Fri 09:34:53 PM 36.6989 -97.5067 260° West 412 474 40,000  Level Kansas City Center
Fri 09:35:53 PM 36.6750 -97.6781 260° West 416 479 40,000  Level Kansas City Center
Fri 09:36:56 PM 36.6578 -97.7997 260° West 408 470 40,000  Level Kansas City Center
Fri 09:37:57 PM 36.6381 -97.9356 260° West 400 460 40,000  Level Kansas City Center
Fri 09:38:57 PM 36.6192 -98.0647 260° West 386 444 40,000  Level Kansas City Center
Fri 09:39:58 PM 36.5975 -98.2178 260° West 377 434 40,000  Level Kansas City Center
Fri 09:41:01 PM 36.5789 -98.3442 260° West 373 429 40,000  Level Kansas City Center
Fri 09:42:02 PM 36.5594 -98.4708 259° West 373 429 40,000  Level Kansas City Center
Fri 09:43:03 PM 36.5408 -98.6006 260° West 378 435 40,000  Level Kansas City Center
Fri 09:44:04 PM 36.5222 -98.7319 260° West 383 441 40,000  Level Kansas City Center
Fri 09:45:07 PM 36.5017 -98.8644 259° West 388 447 40,000  Level Kansas City Center
Fri 09:46:08 PM 36.4825 -98.9961 260° West 388 447 40,000  Level Kansas City Center
Fri 09:47:09 PM 36.4619 -99.1292 259° West 391 450 40,000  Level Kansas City Center
Fri 09:48:10 PM 36.4406 -99.2628 259° West 395 455 40,000  Level Kansas City Center
Fri 09:49:11 PM 36.4200 -99.3969 259° West 397 457 40,000  Level Kansas City Center
Fri 09:50:12 PM 36.3953 -99.5567 259° West 396 456 40,000  Level Kansas City Center
Fri 09:51:14 PM 36.3747 -99.6903 259° West 395 455 40,000  Level Kansas City Center
Fri 09:52:14 PM 36.3536 -99.8233 259° West 394 453 40,000  Level Kansas City Center
Fri 09:53:14 PM 36.3186 -99.9533 252° West 397 457 40,000  Level Kansas City Center
Fri 09:54:17 PM 36.2739 -100.0800 246° West 402 463 40,000  Level Kansas City Center
Fri 09:55:18 PM 36.2286 -100.2092 247° West 406 467 40,000  Level Kansas City Center
Fri 09:56:17 PM 36.1814 -100.3386 246° West 410 472 40,000  Level Kansas City Center
Fri 09:57:19 PM 36.1361 -100.4656 246° West 406 467 40,000  Level Kansas City Center
Fri 09:58:16 PM 36.0908 -100.5925 246° West 405 466 40,000  Level Albuquerque Center
Fri 09:59:18 PM 36.0478 -100.7181 247° West 399 459 40,000  Level Albuquerque Center
Fri 10:00:19 PM 36.0031 -100.8425 246° West 397 457 40,000  Level Albuquerque Center
Fri 10:01:20 PM 35.9539 -100.9781 246° West 395 455 40,000  Level Albuquerque Center
Fri 10:02:21 PM 35.9106 -101.1031 247° West 397 457 40,000  Level Albuquerque Center
Fri 10:03:23 PM 35.8639 -101.2261 245° Southwest 399 459 40,000  Level Albuquerque Center
Fri 10:04:24 PM 35.8183 -101.3494 246° West 397 457 40,000  Level Albuquerque Center
Fri 10:05:25 PM 35.7806 -101.4758 250° West 397 457 40,000  Level Albuquerque Center
Fri 10:06:26 PM 35.7464 -101.6050 252° West 398 458 40,000  Level Albuquerque Center
Fri 10:07:28 PM 35.7050 -101.7614 252° West 403 464 40,000  Level Albuquerque Center
Fri 10:08:29 PM 35.6689 -101.8883 251° West 399 459 40,000  Level Albuquerque Center
Fri 10:09:30 PM 35.6328 -102.0167 251° West 400 460 40,000  Level Albuquerque Center
Fri 10:10:31 PM 35.5967 -102.1464 251° West 403 464 40,000  Level Albuquerque Center
Fri 10:11:33 PM 35.5600 -102.2758 251° West 404 465 40,000  Level Albuquerque Center
Fri 10:12:34 PM 35.5244 -102.4033 251° West 400 460 40,000  Level Albuquerque Center
Fri 10:13:35 PM 35.4869 -102.5333 251° West 404 465 40,000  Level Albuquerque Center
Fri 10:14:36 PM 35.4506 -102.6656 251° West 400 460 40,000  Level Albuquerque Center
Fri 10:15:37 PM 35.4075 -102.8178 251° West 401 461 40,000  Level Albuquerque Center
Fri 10:16:39 PM 35.3706 -102.9483 251° West 401 461 40,000  Level Albuquerque Center
Fri 10:17:40 PM 35.3336 -103.0775 251° West 399 459 40,000  Level Albuquerque Center
Fri 10:18:41 PM 35.2964 -103.2072 251° West 400 460 40,000  Level Albuquerque Center
Fri 10:19:42 PM 35.2592 -103.3364 251° West 399 459 40,000  Level Albuquerque Center
Fri 10:20:43 PM 35.2225 -103.4636 251° West 394 453 40,000  Level Albuquerque Center
Fri 10:21:45 PM 35.1861 -103.5889 250° West 389 448 40,000  Level Albuquerque Center
Fri 10:22:46 PM 35.1778 -103.7206 266° West 387 445 40,000  Level Albuquerque Center
Fri 10:23:47 PM 35.1714 -103.8506 267° West 382 440 40,000  Level Albuquerque Center
Fri 10:24:48 PM 35.1661 -103.9919 267° West 383 441 40,000  Level Albuquerque Center
Fri 10:25:49 PM 35.1594 -104.1242 267° West 389 448 40,000  Level Albuquerque Center
Fri 10:26:50 PM 35.1539 -104.2564 267° West 391 450 40,000 -146 Level Albuquerque Center
Fri 10:27:52 PM 35.1464 -104.3872 266° West 389 448 39,700 -585 Descending Albuquerque Center
Fri 10:28:53 PM 35.1408 -104.5156 267° West 383 441 38,800 -934 Descending Albuquerque Center
Fri 10:29:54 PM 35.1314 -104.6508 265° West 383 441 37,800 -984 Descending Albuquerque Center
Fri 10:30:55 PM 35.1253 -104.7833 267° West 386 444 36,800 -1,328 Descending Albuquerque Center
Fri 10:31:56 PM 35.1183 -104.9186 266° West 393 452 35,100 -2,361 Descending Albuquerque Center
Fri 10:32:57 PM 35.1114 -105.0556 266° West 398 458 32,000 -2,754 Descending Albuquerque Center
Fri 10:33:58 PM 35.0911 -105.1867 259° West 392 451 29,500 -2,361 Descending Albuquerque Center
Fri 10:34:59 PM 35.0728 -105.3103 260° West 374 430 27,200 -2,262 Descending Albuquerque Center
Fri 10:36:00 PM 35.0547 -105.4278 259° West 356 410 24,900 -1,902 Descending Albuquerque Center
Fri 10:37:02 PM 35.0353 -105.5431 258° West 346 398 23,300 -2,146 Descending Albuquerque Center
Fri 10:38:03 PM 35.0142 -105.6633 258° West 356 410 20,500 -2,066 Descending Albuquerque Center
Fri 10:39:04 PM 34.9961 -105.7800 259° West 352 405 19,100 -1,658 Descending Albuquerque Center
Fri 10:39:19 PM 34.9889 -105.8178 257° West 341 392 18,400 -1,869 Descending Albuquerque Center
Fri 10:40:05 PM 34.9769 -105.8914 259° West 333 383 17,200 -1,570 Descending Albuquerque Center
Fri 10:41:06 PM 34.9592 -106.0014 259° West 331 381 15,600 -1,574 Descending Albuquerque Center
Fri 10:42:07 PM 34.9522 -106.1058 265° West 317 365 14,000 -1,574 Descending Albuquerque Center
Fri 10:43:08 PM 34.9456 -106.2100 266° West 309 356 12,400 -1,574 Descending Albuquerque Center
Fri 10:44:09 PM 34.9369 -106.3125 264° West 306 352 10,800 -1,180 Descending Albuquerque Center
Fri 10:45:10 PM 34.9278 -106.4133 264° West 303 349 10,000 -787 Descending Albuquerque Center
Fri 10:46:11 PM 34.9208 -106.5033 265° West 286 329 9,200 -1,131 Descending Albuquerque Center
Fri 10:47:12 PM 34.9286 -106.5786 277° West 247 284 7,700 -1,073 Descending Albuquerque Center
Fri 10:48:14 PM 34.9456 -106.6489 286° West 205 236 7,000 -744 Descending Albuquerque Center
Fri 10:49:13 PM 34.9831 -106.6728 332° Northwest 141 162 6,200 -750 Descending Albuquerque Center
Fri 10:50:14 PM 35.0133 -106.6389 43° Northeast 148 170 5,500 -484 Descending Albuquerque Center
Fri 10:51:17 PM 35.0411 -106.6050 45° Northeast 155 178 5,200 -286 Descending Albuquerque Center

Login

Don't have an account? Register now (free) for customized features, flight alerts, and more!